Time;durP1;ratioP1;P1;durP2;ratioP2;P2;SDS_P1;SDS_P2;PMS_P1;PMS_P2;Temp;Humidity;BMP_temperature;BMP_pressure;BME280_temperature;BME280_humidity;BME280_pressure;Samples;Min_cycle;Max_cycle;Signal;HPM_P1;HPM_P2
2022/01/24 09:29:16;;;;;;;10.20;7.25;;;;;;;;;;6315541;22;20010;-83
2022/01/24 09:31:42;;;;;;;8.27;6.00;;;;;;;;;;6370656;22;20035;-81
2022/01/24 09:34:07;;;;;;;12.23;6.70;;;;;;;;;;6372095;22;20009;-81
2022/01/24 09:36:33;;;;;;;13.68;7.72;;;;;;;;;;6372303;22;20006;-82
2022/01/24 09:38:58;;;;;;;12.23;7.15;;;;;;;;;;6372379;22;20002;-82
2022/01/24 09:41:23;;;;;;;11.48;6.80;;;;;;;;;;6372209;22;20464;-83
2022/01/24 09:43:49;;;;;;;10.57;6.80;;;;;;;;;;6372105;22;20008;-82
2022/01/24 09:46:14;;;;;;;11.43;6.40;;;;;;;;;;6344585;22;20005;-82
2022/01/24 09:48:41;;;;;;;8.90;6.10;;;;;;;;;;6372145;22;20002;-82
2022/01/24 09:51:08;;;;;;;7.28;5.38;;;;;;;;;;6372239;22;20002;-83
2022/01/24 09:53:34;;;;;;;6.40;5.28;;;;;;;;;;6372324;22;20074;-82
2022/01/24 09:56:03;;;;;;;11.40;5.90;;;;;;;;;;6372054;22;20002;-82
2022/01/24 09:58:33;;;;;;;8.38;5.80;;;;;;;;;;6372162;22;20002;-82
2022/01/24 10:00:59;;;;;;;8.80;5.80;;;;;;;;;;6372269;22;20009;-83
2022/01/24 10:03:25;;;;;;;10.18;7.15;;;;;;;;;;6344047;22;20044;-83
2022/01/24 10:05:56;;;;;;;11.82;7.38;;;;;;;;;;6371971;22;20010;-83
2022/01/24 10:08:24;;;;;;;9.93;7.32;;;;;;;;;;6372260;22;20098;-83
2022/01/24 10:10:53;;;;;;;9.95;6.63;;;;;;;;;;6344047;22;20079;-80
2022/01/24 10:16:43;;;;;;;15.18;10.90;;;;;;;;;;6372028;22;20082;-83
2022/01/24 10:19:17;;;;;;;15.57;10.60;;;;;;;;;;6371916;22;20002;-84
2022/01/24 10:21:44;;;;;;;15.27;10.88;;;;;;;;;;6371998;22;20097;-83
2022/01/24 10:24:37;;;;;;;15.95;11.38;;;;;;;;;;6343788;22;20435;-81
2022/01/24 10:27:16;;;;;;;16.83;11.85;;;;;;;;;;6343814;22;20006;-83
2022/01/24 10:29:49;;;;;;;14.20;11.33;;;;;;;;;;6371206;22;20019;-80
2022/01/24 10:32:28;;;;;;;12.77;10.43;;;;;;;;;;6371631;22;20005;-80
2022/01/24 10:34:53;;;;;;;11.93;10.55;;;;;;;;;;6371716;22;20286;-79
2022/01/24 10:37:23;;;;;;;13.25;11.68;;;;;;;;;;6371879;22;20027;-80
2022/01/24 10:40:05;;;;;;;12.65;11.30;;;;;;;;;;6371826;22;20010;-80
2022/01/24 10:43:03;;;;;;;12.68;11.38;;;;;;;;;;6343927;22;20002;-80
2022/01/24 10:45:24;;;;;;;14.80;11.90;;;;;;;;;;6365681;22;20073;-80
2022/01/24 10:47:52;;;;;;;12.60;11.30;;;;;;;;;;6371555;22;20002;-81
2022/01/24 10:50:21;;;;;;;14.73;12.05;;;;;;;;;;6371349;22;20006;-80
2022/01/24 10:52:47;;;;;;;12.63;11.30;;;;;;;;;;6371514;22;20077;-80
2022/01/24 10:55:19;;;;;;;12.40;9.80;;;;;;;;;;6371462;22;20033;-81
2022/01/24 10:57:51;;;;;;;15.40;10.93;;;;;;;;;;6371762;22;20014;-82
2022/01/24 11:00:24;;;;;;;16.98;15.23;;;;;;;;;;6343641;22;20006;-80
2022/01/24 11:02:52;;;;;;;25.65;21.35;;;;;;;;;;6371504;22;20007;-82
2022/01/24 11:05:29;;;;;;;29.02;25.23;;;;;;;;;;6371457;22;19998;-81
2022/01/24 11:08:06;;;;;;;32.15;26.63;;;;;;;;;;6371246;22;20003;-80
2022/01/24 11:10:51;;;;;;;32.08;26.90;;;;;;;;;;6371145;22;20006;-81
2022/01/24 11:13:24;;;;;;;35.30;28.48;;;;;;;;;;6371668;22;20006;-81
2022/01/24 11:15:57;;;;;;;30.20;25.92;;;;;;;;;;6343409;22;20067;-78
2022/01/24 11:18:24;;;;;;;36.42;27.20;;;;;;;;;;6371340;22;20028;-79
2022/01/24 11:21:00;;;;;;;34.28;26.33;;;;;;;;;;6371568;22;19998;-79
2022/01/24 11:23:27;;;;;;;32.58;26.55;;;;;;;;;;6342952;22;20014;-80
2022/01/24 11:25:59;;;;;;;32.22;26.00;;;;;;;;;;6370738;22;20387;-81
2022/01/24 11:28:25;;;;;;;32.10;24.88;;;;;;;;;;6371198;22;20075;-83
2022/01/24 11:31:06;;;;;;;36.17;27.85;;;;;;;;;;6371465;22;20006;-82
2022/01/24 11:33:52;;;;;;;36.30;27.02;;;;;;;;;;6371075;22;20038;-79
2022/01/24 11:36:19;;;;;;;34.75;26.90;;;;;;;;;;6371129;22;19994;-80
2022/01/24 11:38:45;;;;;;;37.88;28.10;;;;;;;;;;6343695;22;20329;-81
2022/01/24 11:41:22;;;;;;;37.40;27.73;;;;;;;;;;6371094;22;20059;-79
2022/01/24 11:43:54;;;;;;;37.83;27.45;;;;;;;;;;6370905;22;19995;-80
2022/01/24 11:46:49;;;;;;;38.03;28.23;;;;;;;;;;6371004;22;20009;-80
2022/01/24 11:49:22;;;;;;;40.65;28.92;;;;;;;;;;6343068;22;20030;-79
2022/01/24 11:51:59;;;;;;;40.30;29.38;;;;;;;;;;6370778;22;20021;-82
2022/01/24 11:57:36;;;;;;;38.15;27.98;;;;;;;;;;6370747;22;20017;-85
2022/01/24 12:00:02;;;;;;;37.70;27.33;;;;;;;;;;6371135;22;20425;-81
2022/01/24 12:02:31;;;;;;;38.50;28.48;;;;;;;;;;6370876;22;20026;-80
2022/01/24 12:05:08;;;;;;;41.65;28.90;;;;;;;;;;6343172;22;20004;-79
2022/01/24 12:07:40;;;;;;;42.40;29.60;;;;;;;;;;6370897;22;19994;-79
2022/01/24 12:10:43;;;;;;;41.88;28.65;;;;;;;;;;6370918;22;20002;-82
2022/01/24 12:13:13;;;;;;;44.50;30.42;;;;;;;;;;6369676;22;20041;-79
2022/01/24 12:15:38;;;;;;;42.55;30.52;;;;;;;;;;6370718;22;20041;-79
2022/01/24 12:18:45;;;;;;;43.00;30.77;;;;;;;;;;6370915;22;19999;-79
2022/01/24 12:21:16;;;;;;;40.45;29.75;;;;;;;;;;6371139;22;20006;-79
2022/01/24 12:23:43;;;;;;;45.72;31.27;;;;;;;;;;6342895;22;20003;-81
2022/01/24 12:26:21;;;;;;;47.13;32.28;;;;;;;;;;6371278;22;20006;-79
2022/01/24 12:28:53;;;;;;;43.50;30.98;;;;;;;;;;6370338;22;20010;-82
2022/01/24 12:31:21;;;;;;;44.13;31.02;;;;;;;;;;6370552;22;20051;-80
2022/01/24 12:33:53;;;;;;;48.33;31.52;;;;;;;;;;6342648;22;20048;-85
2022/01/24 12:36:47;;;;;;;47.53;32.20;;;;;;;;;;6370591;22;19998;-83
2022/01/24 12:39:33;;;;;;;42.38;30.85;;;;;;;;;;6371082;22;20002;-85
2022/01/24 12:42:04;;;;;;;44.00;31.25;;;;;;;;;;6370892;22;19999;-81
2022/01/24 12:47:24;;;;;;;48.08;31.00;;;;;;;;;;6370451;22;20104;-81
2022/01/24 17:23:10;;;;;;;63.05;33.50;;;;;;;;;;6346387;22;20026;-83
2022/01/24 17:25:36;;;;;;;104.57;59.38;;;;;;;;;;6343604;22;20459;-83
2022/01/24 17:28:02;;;;;;;69.45;40.72;;;;;;;;;;6346551;22;20010;-85
2022/01/24 17:30:29;;;;;;;71.32;38.80;;;;;;;;;;6372402;22;20024;-85
2022/01/24 17:32:55;;;;;;;64.60;36.92;;;;;;;;;;6372309;22;20004;-85
2022/01/24 17:35:21;;;;;;;61.17;36.60;;;;;;;;;;6372318;22;19998;-84
2022/01/24 17:37:48;;;;;;;58.30;35.22;;;;;;;;;;6372196;22;20031;-83
2022/01/24 17:40:17;;;;;;;64.72;34.55;;;;;;;;;;6344516;22;20010;-83
2022/01/24 17:42:43;;;;;;;54.83;30.07;;;;;;;;;;6372257;22;20006;-83
2022/01/24 17:45:11;;;;;;;62.42;32.58;;;;;;;;;;6344309;22;20051;-83
2022/01/24 17:47:36;;;;;;;61.00;33.92;;;;;;;;;;6372587;22;20028;-86
2022/01/24 17:50:07;;;;;;;58.55;31.80;;;;;;;;;;6344484;22;20041;-85
2022/01/24 17:52:32;;;;;;;54.95;31.77;;;;;;;;;;6372619;22;19998;-84
2022/01/24 17:54:58;;;;;;;62.42;33.05;;;;;;;;;;6372005;22;20025;-84
2022/01/24 17:57:23;;;;;;;54.72;30.88;;;;;;;;;;6372078;22;20009;-85
2022/01/24 17:59:49;;;;;;;57.90;32.13;;;;;;;;;;6371617;22;19998;-83
2022/01/24 18:02:15;;;;;;;63.95;32.75;;;;;;;;;;6344222;22;20060;-84
2022/01/24 18:04:41;;;;;;;58.50;33.50;;;;;;;;;;6345671;22;20006;-83
2022/01/24 18:07:07;;;;;;;60.67;33.88;;;;;;;;;;6380459;22;20078;-85
2022/01/24 18:09:32;;;;;;;65.05;36.70;;;;;;;;;;6343977;22;20006;-83
2022/01/24 18:11:58;;;;;;;60.38;33.75;;;;;;;;;;6371844;22;19998;-85
2022/01/24 18:14:24;;;;;;;53.75;31.65;;;;;;;;;;6372248;22;20047;-86
2022/01/24 18:16:50;;;;;;;58.10;32.45;;;;;;;;;;6344334;22;20460;-84
2022/01/24 18:19:15;;;;;;;65.20;33.47;;;;;;;;;;6372169;22;19998;-85
2022/01/24 18:21:41;;;;;;;66.15;34.20;;;;;;;;;;6371854;22;20005;-84
2022/01/24 18:24:08;;;;;;;61.53;33.55;;;;;;;;;;6371366;22;20054;-81
2022/01/24 18:26:34;;;;;;;63.03;31.95;;;;;;;;;;6371970;22;20330;-84
2022/01/24 18:28:59;;;;;;;56.50;32.65;;;;;;;;;;6371917;22;19998;-85
2022/01/24 18:31:24;;;;;;;63.97;33.17;;;;;;;;;;6371636;22;20029;-84
2022/01/24 18:33:51;;;;;;;63.80;34.85;;;;;;;;;;6344680;22;19995;-83
2022/01/24 18:36:17;;;;;;;60.03;34.15;;;;;;;;;;6371714;22;20411;-85
2022/01/24 18:38:42;;;;;;;63.13;34.72;;;;;;;;;;6372043;22;20302;-84
2022/01/24 18:41:08;;;;;;;67.32;35.28;;;;;;;;;;6372288;22;20005;-84
2022/01/24 18:43:36;;;;;;;62.55;33.67;;;;;;;;;;6372349;22;20091;-84
2022/01/24 18:46:03;;;;;;;61.67;33.90;;;;;;;;;;6372703;22;20049;-85
2022/01/24 18:48:29;;;;;;;70.85;37.13;;;;;;;;;;6371570;22;20354;-85
2022/01/24 18:50:54;;;;;;;73.30;38.58;;;;;;;;;;6371672;22;20328;-85
2022/01/24 18:53:20;;;;;;;73.65;40.20;;;;;;;;;;6371657;22;19998;-84
2022/01/24 18:55:46;;;;;;;76.88;41.97;;;;;;;;;;6372335;22;20055;-85
2022/01/24 18:58:12;;;;;;;64.40;36.63;;;;;;;;;;6343904;22;20409;-86
2022/01/24 19:00:38;;;;;;;66.45;36.65;;;;;;;;;;6371764;22;20009;-84
2022/01/24 19:03:03;;;;;;;81.20;47.03;;;;;;;;;;6371503;22;20002;-85
2022/01/24 19:05:30;;;;;;;75.22;40.55;;;;;;;;;;6343564;22;20002;-84
2022/01/24 19:07:59;;;;;;;77.60;40.97;;;;;;;;;;6343662;22;20029;-84
2022/01/24 19:10:25;;;;;;;72.53;39.28;;;;;;;;;;6343481;22;20031;-84
2022/01/24 19:12:52;;;;;;;65.97;35.55;;;;;;;;;;6371278;22;20425;-85
2022/01/24 19:15:24;;;;;;;65.15;36.30;;;;;;;;;;6371589;22;20026;-84
2022/01/24 19:18:00;;;;;;;73.05;37.42;;;;;;;;;;6371289;22;20006;-84
2022/01/24 19:23:17;;;;;;;66.32;35.67;;;;;;;;;;6371606;22;20029;-84
2022/01/24 19:25:50;;;;;;;77.07;41.38;;;;;;;;;;6371178;22;20038;-84
2022/01/24 19:28:17;;;;;;;69.57;39.10;;;;;;;;;;6343481;22;20405;-84
2022/01/24 19:30:43;;;;;;;77.72;40.60;;;;;;;;;;6343338;22;20013;-84
2022/01/24 19:33:08;;;;;;;66.30;35.35;;;;;;;;;;6373042;22;20002;-86
2022/01/24 19:35:34;;;;;;;73.55;37.97;;;;;;;;;;6371489;22;20003;-87
2022/01/24 19:38:00;;;;;;;68.22;37.50;;;;;;;;;;6371225;22;20002;-86
2022/01/24 19:40:26;;;;;;;65.07;36.72;;;;;;;;;;6342541;22;20624;-85
2022/01/24 19:42:52;;;;;;;64.78;33.85;;;;;;;;;;6371178;22;20022;-86
2022/01/24 19:45:19;;;;;;;61.55;33.20;;;;;;;;;;6371222;22;19994;-85
2022/01/24 19:47:46;;;;;;;68.45;36.08;;;;;;;;;;6371158;22;20047;-84
2022/01/24 19:50:12;;;;;;;65.38;34.45;;;;;;;;;;6343216;22;20010;-84
2022/01/24 19:52:38;;;;;;;72.25;37.92;;;;;;;;;;6344168;22;20029;-84
2022/01/24 19:55:11;;;;;;;71.18;37.10;;;;;;;;;;6371244;22;20020;-84
2022/01/24 19:57:49;;;;;;;67.38;36.20;;;;;;;;;;6371297;22;20009;-84
2022/01/24 20:00:15;;;;;;;66.45;35.00;;;;;;;;;;6371273;22;20047;-86
2022/01/24 20:02:41;;;;;;;66.25;35.70;;;;;;;;;;6371309;22;20002;-89
2022/01/24 20:05:07;;;;;;;67.40;35.33;;;;;;;;;;6371382;22;20002;-85
2022/01/24 20:07:32;;;;;;;62.97;33.63;;;;;;;;;;6343314;22;19998;-86
2022/01/24 20:09:58;;;;;;;68.35;35.03;;;;;;;;;;6370656;22;20298;-84
2022/01/24 20:12:23;;;;;;;64.20;33.13;;;;;;;;;;6371193;22;20455;-85
2022/01/24 20:14:49;;;;;;;66.85;35.47;;;;;;;;;;6370943;22;20005;-84
2022/01/24 20:17:14;;;;;;;63.58;33.47;;;;;;;;;;6343177;22;20002;-84
2022/01/24 20:19:40;;;;;;;66.35;34.05;;;;;;;;;;6343073;22;20403;-84
2022/01/24 20:22:06;;;;;;;67.90;36.38;;;;;;;;;;6371064;22;20034;-84
2022/01/24 20:24:32;;;;;;;69.30;35.28;;;;;;;;;;6328635;22;20433;-84
2022/01/24 20:26:57;;;;;;;67.93;35.70;;;;;;;;;;6311629;22;20011;-84
2022/01/24 20:29:25;;;;;;;67.68;35.88;;;;;;;;;;6339417;22;20010;-84
2022/01/24 20:31:51;;;;;;;66.85;35.53;;;;;;;;;;6311558;22;20003;-84
2022/01/24 20:34:17;;;;;;;67.07;35.42;;;;;;;;;;6339132;22;20014;-84
2022/01/24 20:36:43;;;;;;;60.78;33.60;;;;;;;;;;6339540;22;20002;-84
2022/01/24 20:39:10;;;;;;;63.95;32.88;;;;;;;;;;6339919;22;20074;-85
2022/01/24 20:41:36;;;;;;;66.50;33.88;;;;;;;;;;6342073;22;20064;-85
2022/01/24 20:44:03;;;;;;;67.18;35.67;;;;;;;;;;6339510;22;20026;-85
2022/01/24 20:46:28;;;;;;;67.55;34.92;;;;;;;;;;6311610;22;20028;-86
2022/01/24 20:48:54;;;;;;;74.22;38.47;;;;;;;;;;6311678;22;20011;-85
2022/01/24 20:51:22;;;;;;;69.72;36.50;;;;;;;;;;6312043;22;20002;-87
2022/01/24 20:53:48;;;;;;;65.72;34.58;;;;;;;;;;6339202;22;20003;-86
2022/01/24 20:56:14;;;;;;;68.32;36.15;;;;;;;;;;6339795;22;20400;-86
2022/01/24 20:58:43;;;;;;;64.63;34.00;;;;;;;;;;6339447;22;20005;-86
2022/01/24 21:01:08;;;;;;;65.97;34.55;;;;;;;;;;6339433;22;19999;-89
2022/01/24 21:03:34;;;;;;;66.82;37.25;;;;;;;;;;6339199;22;20432;-84
2022/01/24 21:06:00;;;;;;;68.63;36.58;;;;;;;;;;6311747;22;20017;-84
2022/01/24 21:08:30;;;;;;;64.43;34.70;;;;;;;;;;6339164;22;20433;-84
2022/01/24 21:11:00;;;;;;;65.65;34.22;;;;;;;;;;6338791;22;20007;-85
2022/01/24 21:13:30;;;;;;;;;;;;;;;;;;6339926;22;20003;-84
2022/01/24 21:15:57;;;;;;;66.25;34.97;;;;;;;;;;6339162;22;19959;-84
2022/01/24 21:18:22;;;;;;;65.38;34.13;;;;;;;;;;6339011;22;20081;-84
2022/01/24 21:20:52;;;;;;;67.63;36.53;;;;;;;;;;6310433;22;20433;-85
2022/01/24 21:23:18;;;;;;;61.65;32.38;;;;;;;;;;6338529;22;20073;-84
2022/01/24 21:25:44;;;;;;;64.40;33.90;;;;;;;;;;6368683;22;20006;-85
2022/01/24 21:28:11;;;;;;;67.13;34.13;;;;;;;;;;6370356;22;20056;-85
2022/01/24 21:30:37;;;;;;;60.13;34.03;;;;;;;;;;6371991;22;20006;-85
2022/01/24 21:33:02;;;;;;;62.20;32.75;;;;;;;;;;6372530;22;20051;-84
2022/01/24 21:35:28;;;;;;;63.80;31.67;;;;;;;;;;6372315;22;20008;-85
2022/01/24 21:38:01;;;;;;;67.68;32.60;;;;;;;;;;6344318;22;20095;-85
2022/01/24 21:40:30;;;;;;;60.97;33.75;;;;;;;;;;6371917;22;20443;-85
2022/01/24 21:42:59;;;;;;;71.65;36.15;;;;;;;;;;6344171;22;20052;-85
2022/01/24 21:45:30;;;;;;;81.60;40.17;;;;;;;;;;6372278;22;20026;-86
2022/01/24 21:47:56;;;;;;;78.93;39.65;;;;;;;;;;6372183;22;20002;-85
2022/01/24 21:50:24;;;;;;;69.38;36.47;;;;;;;;;;6372293;22;20009;-86
2022/01/24 21:52:51;;;;;;;63.13;34.45;;;;;;;;;;6372045;22;20085;-86
2022/01/24 21:55:26;;;;;;;69.40;35.15;;;;;;;;;;6372107;22;20474;-86
2022/01/24 21:57:52;;;;;;;71.45;34.55;;;;;;;;;;6372504;22;20037;-86
2022/01/24 22:00:22;;;;;;;63.60;32.63;;;;;;;;;;6372339;22;20052;-86
2022/01/24 22:02:51;;;;;;;59.85;32.70;;;;;;;;;;6372169;22;20306;-86
2022/01/24 22:05:17;;;;;;;66.05;31.95;;;;;;;;;;6372375;22;20066;-85
2022/01/24 22:10:14;;;;;;;60.08;32.00;;;;;;;;;;6381321;22;20010;-86
2022/01/24 22:12:40;;;;;;;61.88;33.30;;;;;;;;;;6344308;22;19998;-86
2022/01/24 22:15:07;;;;;;;100.32;49.58;;;;;;;;;;6372193;22;20018;-85
2022/01/24 22:17:32;;;;;;;94.13;45.33;;;;;;;;;;6372074;22;19998;-85
2022/01/24 22:20:01;;;;;;;79.88;39.40;;;;;;;;;;6372114;22;20022;-85
2022/01/24 22:25:10;;;;;;;70.28;35.92;;;;;;;;;;6370806;22;20016;-86
2022/01/24 22:27:36;;;;;;;62.97;33.25;;;;;;;;;;6370378;22;20491;-86
2022/01/24 22:30:02;;;;;;;79.95;39.08;;;;;;;;;;6342085;22;20452;-86
2022/01/24 22:32:31;;;;;;;62.00;32.53;;;;;;;;;;6370319;22;20025;-86
2022/01/24 22:35:01;;;;;;;68.80;34.47;;;;;;;;;;6370413;22;20012;-86
2022/01/24 22:37:27;;;;;;;63.85;32.65;;;;;;;;;;6370073;22;20013;-85
2022/01/24 22:39:53;;;;;;;65.65;32.95;;;;;;;;;;6341649;22;20080;-84
2022/01/24 22:42:19;;;;;;;70.85;33.67;;;;;;;;;;6342701;22;20025;-86
2022/01/24 22:44:44;;;;;;;63.25;32.70;;;;;;;;;;6370471;22;20448;-85
2022/01/24 22:47:10;;;;;;;65.50;33.75;;;;;;;;;;6342534;22;20001;-85
2022/01/24 22:49:37;;;;;;;72.10;36.20;;;;;;;;;;6342173;22;20006;-85
